createdAt,value
2016-12-08T00:00:58.260Z,99.99
2016-12-08T00:02:09.000Z,99.99
2016-12-08T00:03:19.720Z,99.99
2016-12-08T00:04:30.469Z,99.99
2016-12-08T00:05:41.196Z,99.99
2016-12-08T00:06:51.892Z,99.99
2016-12-08T00:08:02.632Z,99.99
2016-12-08T00:09:13.371Z,99.99
2016-12-08T00:10:24.117Z,99.99
2016-12-08T00:11:34.825Z,99.99
2016-12-08T00:12:45.541Z,99.99
2016-12-08T00:13:56.597Z,99.99
2016-12-08T00:15:07.337Z,99.99
2016-12-08T00:16:18.075Z,99.99
2016-12-08T00:17:28.801Z,99.99
2016-12-08T00:18:39.542Z,99.99
2016-12-08T00:19:50.291Z,99.99
2016-12-08T00:21:01.046Z,99.99
2016-12-08T00:22:11.801Z,99.99
2016-12-08T00:23:22.561Z,99.99
2016-12-08T00:24:33.598Z,99.99
2016-12-08T00:25:44.322Z,99.99
2016-12-08T00:26:55.068Z,99.99
2016-12-08T00:28:05.792Z,99.99
2016-12-08T00:29:16.517Z,99.99
2016-12-08T00:30:27.237Z,99.99
2016-12-08T00:31:37.951Z,99.99
2016-12-08T00:32:48.728Z,99.99
2016-12-08T00:33:59.444Z,99.99
2016-12-08T00:35:10.162Z,99.99
2016-12-08T00:36:20.908Z,99.99
2016-12-08T00:37:31.633Z,99.99
2016-12-08T00:38:42.382Z,99.99
2016-12-08T00:39:53.125Z,99.99
2016-12-08T00:41:03.869Z,99.99
2016-12-08T00:42:14.591Z,99.99
2016-12-08T00:43:25.304Z,99.99
2016-12-08T00:44:35.999Z,99.99
2016-12-08T00:45:46.722Z,99.99
2016-12-08T00:46:57.442Z,99.99
2016-12-08T00:48:08.176Z,99.99
2016-12-08T00:49:18.901Z,99.99
2016-12-08T00:50:29.630Z,99.99
2016-12-08T00:51:40.358Z,99.99
2016-12-08T00:52:51.072Z,99.99
2016-12-08T00:54:01.818Z,99.99
2016-12-08T00:55:12.547Z,99.99
2016-12-08T00:56:23.298Z,99.99
2016-12-08T00:57:34.018Z,99.99
2016-12-08T00:58:44.752Z,99.99
2016-12-08T00:59:55.478Z,99.99
2016-12-08T01:01:06.224Z,99.99
2016-12-08T01:02:16.948Z,99.99
2016-12-08T01:03:27.649Z,99.99
2016-12-08T01:04:38.371Z,99.99
2016-12-08T01:05:49.089Z,99.99
2016-12-08T01:06:59.832Z,99.99
2016-12-08T01:08:10.575Z,99.99
2016-12-08T01:09:21.305Z,99.99
2016-12-08T01:10:32.051Z,99.99
2016-12-08T01:11:42.796Z,99.99
2016-12-08T01:12:53.559Z,99.99
2016-12-08T01:14:04.305Z,99.99
2016-12-08T01:15:15.032Z,99.99
2016-12-08T01:16:25.751Z,99.99
2016-12-08T01:17:36.489Z,99.99
2016-12-08T01:18:47.243Z,99.99
2016-12-08T01:19:58.265Z,99.99
2016-12-08T01:21:08.984Z,99.99
2016-12-08T01:22:19.703Z,99.99
2016-12-08T01:23:30.474Z,99.99
2016-12-08T01:24:41.215Z,99.99
2016-12-08T01:25:51.937Z,99.99
2016-12-08T01:27:02.665Z,99.99
2016-12-08T01:28:13.390Z,99.99
2016-12-08T01:29:24.154Z,99.99
2016-12-08T01:30:34.903Z,99.99
2016-12-08T01:31:45.640Z,99.99
2016-12-08T01:32:56.368Z,99.99
2016-12-08T01:34:07.083Z,99.99
2016-12-08T01:35:17.814Z,99.99
2016-12-08T01:36:28.583Z,99.99
2016-12-08T01:37:39.311Z,99.99
2016-12-08T01:38:50.055Z,99.99
2016-12-08T01:40:00.789Z,99.99
2016-12-08T01:41:11.514Z,99.99
2016-12-08T01:42:22.268Z,99.99
2016-12-08T01:43:32.966Z,99.99
2016-12-08T01:44:43.698Z,99.99
2016-12-08T01:45:54.419Z,99.99
2016-12-08T01:47:05.145Z,99.99
2016-12-08T01:48:15.876Z,99.99
2016-12-08T01:49:26.611Z,99.99
2016-12-08T01:50:37.315Z,99.99
2016-12-08T01:51:48.035Z,99.99
2016-12-08T01:52:58.795Z,99.99
2016-12-08T01:54:09.495Z,99.99
2016-12-08T01:55:20.219Z,99.99
2016-12-08T01:56:30.936Z,99.99
2016-12-08T01:57:41.657Z,99.99
2016-12-08T01:58:52.404Z,99.99
2016-12-08T02:00:03.150Z,99.99
2016-12-08T02:01:13.890Z,99.99
2016-12-08T02:02:24.612Z,99.99
2016-12-08T02:03:35.337Z,99.99
2016-12-08T02:04:46.089Z,99.99
2016-12-08T02:05:56.836Z,99.99
2016-12-08T02:07:07.577Z,99.99
2016-12-08T02:08:18.328Z,99.99
2016-12-08T02:09:29.074Z,99.99
2016-12-08T02:10:39.793Z,99.99
2016-12-08T02:11:50.533Z,99.99
2016-12-08T02:13:01.256Z,99.99
2016-12-08T02:14:11.995Z,99.99
2016-12-08T02:15:23.041Z,99.99
2016-12-08T02:16:33.748Z,99.99
2016-12-08T02:17:44.462Z,99.99
2016-12-08T02:18:55.190Z,99.99
2016-12-08T02:20:06.236Z,99.99
2016-12-08T02:21:16.954Z,99.99
2016-12-08T02:22:27.690Z,99.99
2016-12-08T02:23:38.411Z,99.99
2016-12-08T02:24:49.137Z,99.99
2016-12-08T02:25:59.878Z,99.99
2016-12-08T02:27:10.607Z,99.99
2016-12-08T02:28:21.329Z,99.99
2016-12-08T02:29:32.042Z,99.99
2016-12-08T02:30:42.774Z,99.99
2016-12-08T02:31:53.541Z,99.99
2016-12-08T02:33:04.299Z,99.99
2016-12-08T02:34:15.063Z,99.99
2016-12-08T02:35:25.779Z,99.99
2016-12-08T02:36:36.518Z,99.99
2016-12-08T02:37:47.246Z,99.99
2016-12-08T02:38:57.998Z,99.99
2016-12-08T02:40:08.735Z,99.99
2016-12-08T02:41:19.481Z,99.99
2016-12-08T02:42:30.206Z,99.99
2016-12-08T02:43:40.923Z,99.99
2016-12-08T02:44:51.676Z,99.99
2016-12-08T02:46:02.397Z,99.99
2016-12-08T02:47:13.144Z,99.99
2016-12-08T02:48:23.863Z,99.99
2016-12-08T02:49:34.599Z,99.99
2016-12-08T02:50:45.327Z,99.99
2016-12-08T02:51:56.045Z,99.99
2016-12-08T02:53:07.092Z,99.99
2016-12-08T02:54:17.840Z,99.99
2016-12-08T02:55:28.591Z,99.99
2016-12-08T02:56:39.354Z,99.99
2016-12-08T02:57:50.095Z,99.99
2016-12-08T02:59:00.830Z,99.99
2016-12-08T03:00:11.545Z,99.99
2016-12-08T03:01:22.295Z,99.99
2016-12-08T03:02:33.013Z,99.99
2016-12-08T03:03:43.738Z,99.99
2016-12-08T03:04:54.479Z,99.99
2016-12-08T03:06:05.193Z,99.99
2016-12-08T03:07:15.918Z,99.99
2016-12-08T03:08:26.660Z,99.99
2016-12-08T03:09:37.385Z,99.99
2016-12-08T03:10:48.127Z,99.99
2016-12-08T03:11:58.860Z,99.99
2016-12-08T03:13:09.601Z,99.99
2016-12-08T03:14:20.344Z,99.99
2016-12-08T03:15:31.086Z,99.99
2016-12-08T03:16:41.819Z,99.99
2016-12-08T03:17:52.557Z,99.99
2016-12-08T03:19:03.306Z,99.99
2016-12-08T03:20:14.045Z,99.99
2016-12-08T03:21:24.825Z,99.99
2016-12-08T03:22:35.566Z,99.99
2016-12-08T03:23:46.295Z,99.99
2016-12-08T03:24:57.011Z,99.99
2016-12-08T03:26:07.729Z,99.99
2016-12-08T03:27:18.451Z,99.99
2016-12-08T03:28:29.180Z,99.99
2016-12-08T03:29:39.927Z,99.99
2016-12-08T03:30:50.659Z,99.99
2016-12-08T03:32:01.384Z,99.99
2016-12-08T03:33:12.138Z,99.99
2016-12-08T03:34:22.859Z,99.99
2016-12-08T03:35:33.597Z,99.99
2016-12-08T03:36:44.321Z,99.99
2016-12-08T03:37:55.034Z,99.99
2016-12-08T03:39:06.055Z,99.99
2016-12-08T03:40:16.805Z,99.99
2016-12-08T03:41:27.551Z,99.99
2016-12-08T03:42:38.304Z,99.99
2016-12-08T03:43:49.071Z,99.99
2016-12-08T03:44:59.821Z,99.99
2016-12-08T03:46:10.591Z,99.99
2016-12-08T03:47:21.356Z,99.99
2016-12-08T03:48:32.108Z,99.99
2016-12-08T03:49:42.879Z,99.99
2016-12-08T03:50:53.651Z,99.99
2016-12-08T03:52:04.414Z,99.99
2016-12-08T03:53:15.167Z,99.99
2016-12-08T03:54:25.913Z,99.99
2016-12-08T03:55:36.710Z,99.99
2016-12-08T03:56:47.472Z,99.99
2016-12-08T03:57:58.237Z,99.99
2016-12-08T03:59:09.048Z,99.99
2016-12-08T04:00:20.195Z,99.99
2016-12-08T04:01:31.023Z,99.99
2016-12-08T04:02:41.836Z,99.99
2016-12-08T04:03:52.657Z,99.99
2016-12-08T04:05:03.467Z,99.99
2016-12-08T04:06:14.287Z,99.99
2016-12-08T04:07:25.103Z,99.99
2016-12-08T04:08:35.916Z,99.99
2016-12-08T04:09:46.726Z,99.99
2016-12-08T04:10:57.543Z,99.99
2016-12-08T04:12:08.342Z,99.99
2016-12-08T04:13:19.149Z,99.99
2016-12-08T04:14:29.960Z,99.99
2016-12-08T04:15:40.778Z,99.99
2016-12-08T04:16:51.589Z,99.99
2016-12-08T04:18:02.409Z,99.99
2016-12-08T04:19:13.238Z,99.99
2016-12-08T04:20:24.060Z,99.99
2016-12-08T04:21:34.860Z,99.99
2016-12-08T04:22:46.002Z,99.99
2016-12-08T04:23:56.814Z,99.99
2016-12-08T04:25:07.635Z,99.99
2016-12-08T04:26:18.456Z,99.99
2016-12-08T04:27:29.266Z,99.99
2016-12-08T04:28:40.087Z,99.99
2016-12-08T04:29:50.903Z,99.99
2016-12-08T04:31:01.727Z,99.99
2016-12-08T04:32:12.537Z,99.99
2016-12-08T04:33:23.365Z,99.99
2016-12-08T04:34:34.190Z,99.99
2016-12-08T04:35:45.010Z,99.99
2016-12-08T04:36:55.821Z,99.99
2016-12-08T04:38:06.641Z,99.99
2016-12-08T04:39:17.470Z,99.99
2016-12-08T04:40:28.272Z,99.99
2016-12-08T04:41:39.104Z,99.99
2016-12-08T04:42:49.913Z,99.99
2016-12-08T04:44:00.729Z,99.99
2016-12-08T04:45:11.543Z,99.99
2016-12-08T04:46:22.364Z,99.99
2016-12-08T04:47:33.185Z,99.99
2016-12-08T04:48:44.039Z,99.99
2016-12-08T04:49:54.860Z,99.99
2016-12-08T04:51:05.681Z,99.99
2016-12-08T04:52:16.505Z,99.99
2016-12-08T04:53:27.323Z,99.99
2016-12-08T04:54:38.136Z,99.99
2016-12-08T04:55:48.956Z,99.99
2016-12-08T04:56:59.786Z,99.99
2016-12-08T04:58:10.600Z,99.99
2016-12-08T04:59:21.420Z,99.99
2016-12-08T05:00:32.252Z,99.99
2016-12-08T05:01:43.070Z,99.99
2016-12-08T05:02:53.891Z,99.99
2016-12-08T05:04:04.705Z,99.99
2016-12-08T05:05:15.515Z,99.99
2016-12-08T05:06:26.332Z,99.99
2016-12-08T05:07:37.167Z,99.99
2016-12-08T05:08:47.989Z,99.99
2016-12-08T05:09:58.810Z,99.99
2016-12-08T05:11:09.639Z,99.99
2016-12-08T05:12:20.451Z,99.99
2016-12-08T05:13:31.281Z,99.99
2016-12-08T05:14:42.103Z,99.99
2016-12-08T05:15:52.904Z,99.99
2016-12-08T05:17:03.724Z,99.99
2016-12-08T05:18:14.545Z,99.99
2016-12-08T05:19:25.642Z,99.99
2016-12-08T05:20:36.483Z,99.99
2016-12-08T05:21:47.303Z,99.99
2016-12-08T05:22:58.099Z,99.99
2016-12-08T05:24:08.895Z,99.99
2016-12-08T05:25:19.686Z,99.99
2016-12-08T05:26:30.475Z,99.99
2016-12-08T05:27:41.296Z,99.99
2016-12-08T05:28:52.092Z,99.99
2016-12-08T05:30:02.901Z,99.99
2016-12-08T05:31:13.697Z,99.99
2016-12-08T05:32:24.463Z,99.99
2016-12-08T05:33:35.262Z,99.99
2016-12-08T05:34:46.042Z,99.99
2016-12-08T05:35:56.836Z,99.99
2016-12-08T05:37:07.626Z,99.99
2016-12-08T05:38:18.423Z,99.99
2016-12-08T05:39:29.207Z,99.99
2016-12-08T05:40:39.969Z,99.99
2016-12-08T05:41:50.695Z,99.99
2016-12-08T05:43:01.426Z,99.99
2016-12-08T05:44:12.169Z,99.99
2016-12-08T05:45:22.911Z,99.99
2016-12-08T05:46:33.650Z,99.99
2016-12-08T05:47:44.378Z,99.99
2016-12-08T05:48:55.094Z,99.99
2016-12-08T05:50:05.846Z,99.99
2016-12-08T05:51:16.585Z,99.99
2016-12-08T05:52:27.605Z,99.99
2016-12-08T05:53:38.338Z,99.99
2016-12-08T05:54:49.053Z,99.99
2016-12-08T05:55:59.798Z,99.99
2016-12-08T05:57:10.519Z,99.99
2016-12-08T05:58:21.266Z,99.99
2016-12-08T05:59:32.007Z,99.99
2016-12-08T06:00:42.752Z,99.99
2016-12-08T06:01:53.474Z,99.99
2016-12-08T06:03:04.199Z,99.99
2016-12-08T06:04:14.946Z,99.99
2016-12-08T06:05:25.712Z,99.99
2016-12-08T06:06:36.438Z,99.99
2016-12-08T06:07:47.184Z,99.99
2016-12-08T06:08:57.936Z,99.99
2016-12-08T06:10:08.677Z,99.99
2016-12-08T06:11:19.422Z,99.99
2016-12-08T06:12:30.168Z,99.99
2016-12-08T06:13:40.922Z,99.99
2016-12-08T06:14:51.662Z,99.99
2016-12-08T06:16:02.388Z,99.99
2016-12-08T06:17:13.127Z,99.99
2016-12-08T06:18:23.873Z,99.99
2016-12-08T06:19:34.602Z,99.99
2016-12-08T06:20:45.344Z,99.99
2016-12-08T06:21:56.089Z,99.99
2016-12-08T06:23:06.790Z,99.99
2016-12-08T06:24:17.511Z,99.99
2016-12-08T06:25:28.228Z,99.99
2016-12-08T06:26:38.941Z,99.99
2016-12-08T06:27:49.666Z,99.99
2016-12-08T06:29:00.412Z,99.99
2016-12-08T06:30:11.129Z,99.99
2016-12-08T06:31:21.913Z,99.99
2016-12-08T06:32:32.633Z,99.99
2016-12-08T06:33:43.417Z,99.99
2016-12-08T06:34:54.145Z,99.99
2016-12-08T06:36:04.889Z,99.99
2016-12-08T06:37:15.617Z,99.99
2016-12-08T06:38:26.339Z,99.99
2016-12-08T06:39:37.085Z,99.99
2016-12-08T06:40:47.801Z,99.99
2016-12-08T06:41:58.526Z,99.99
2016-12-08T06:43:09.273Z,99.99
2016-12-08T06:44:19.991Z,99.99
2016-12-08T06:45:30.769Z,99.99
2016-12-08T06:46:41.504Z,99.99
2016-12-08T06:47:52.256Z,99.99
2016-12-08T06:49:02.998Z,99.99
2016-12-08T06:50:13.736Z,99.99
2016-12-08T06:51:24.444Z,99.99
2016-12-08T06:52:35.184Z,99.99
2016-12-08T06:53:45.907Z,99.99
2016-12-08T06:54:56.646Z,99.99
2016-12-08T06:56:07.371Z,99.99
2016-12-08T06:57:18.091Z,99.99
2016-12-08T06:58:28.827Z,99.99
2016-12-08T06:59:39.539Z,99.99
2016-12-08T07:00:50.251Z,99.99
2016-12-08T07:02:00.971Z,99.99
2016-12-08T07:03:11.700Z,99.99
2016-12-08T07:04:22.443Z,99.99
2016-12-08T07:05:33.189Z,99.99
2016-12-08T07:06:43.942Z,99.99
2016-12-08T07:07:54.984Z,99.99
2016-12-08T07:09:05.727Z,99.99
2016-12-08T07:10:16.479Z,99.99
2016-12-08T07:11:27.214Z,99.99
2016-12-08T07:12:37.943Z,99.99
2016-12-08T07:13:48.685Z,99.99
2016-12-08T07:14:59.431Z,99.99
2016-12-08T07:16:10.152Z,99.99
2016-12-08T07:17:20.898Z,99.99
2016-12-08T07:18:31.671Z,99.99
2016-12-08T07:19:42.425Z,99.99
2016-12-08T07:20:53.161Z,99.99
2016-12-08T07:22:03.882Z,99.99
2016-12-08T07:23:14.627Z,99.99
2016-12-08T07:24:25.378Z,99.99
2016-12-08T07:25:36.120Z,99.99
2016-12-08T07:26:46.843Z,99.99
2016-12-08T07:27:57.562Z,99.99
2016-12-08T07:29:08.285Z,99.99
2016-12-08T07:30:19.028Z,99.99
2016-12-08T07:31:29.774Z,99.99
2016-12-08T07:32:40.524Z,99.99
2016-12-08T07:33:51.251Z,99.99
2016-12-08T07:35:02.312Z,99.99
2016-12-08T07:36:13.016Z,99.99
2016-12-08T07:37:23.779Z,99.99
2016-12-08T07:38:34.505Z,99.99
2016-12-08T07:39:45.224Z,99.99
2016-12-08T07:40:55.966Z,99.99
2016-12-08T07:42:06.714Z,99.99
2016-12-08T07:43:17.491Z,99.99
2016-12-08T07:44:28.212Z,99.99
2016-12-08T07:45:38.960Z,99.99
2016-12-08T07:46:49.705Z,99.99
2016-12-08T07:48:00.439Z,99.99
2016-12-08T07:49:11.470Z,99.99
2016-12-08T07:50:22.213Z,99.99
2016-12-08T07:51:33.238Z,99.99
2016-12-08T07:52:43.948Z,99.99
2016-12-08T07:53:54.681Z,99.99
2016-12-08T07:55:05.399Z,99.99
2016-12-08T07:56:16.136Z,99.99
2016-12-08T07:57:26.856Z,99.99
2016-12-08T07:58:37.557Z,99.99
2016-12-08T07:59:48.279Z,99.99
2016-12-08T08:00:59.025Z,99.99
2016-12-08T08:02:09.803Z,99.99
2016-12-08T08:03:20.549Z,99.99
2016-12-08T08:04:31.315Z,99.99
2016-12-08T08:05:42.039Z,99.99
2016-12-08T08:06:52.754Z,99.99
2016-12-08T08:08:03.496Z,99.99
2016-12-08T08:09:14.248Z,99.99
2016-12-08T08:10:25.000Z,99.99
2016-12-08T08:11:35.745Z,99.99
2016-12-08T08:12:46.468Z,99.99
2016-12-08T08:13:57.205Z,99.99
2016-12-08T08:15:07.947Z,99.99
2016-12-08T08:16:18.697Z,99.99
2016-12-08T08:17:29.438Z,99.99
2016-12-08T08:18:40.161Z,99.99
2016-12-08T08:19:50.905Z,99.99
2016-12-08T08:21:01.631Z,99.99
2016-12-08T08:22:12.355Z,99.99
2016-12-08T08:23:23.098Z,99.99
2016-12-08T08:24:33.827Z,99.99
2016-12-08T08:25:44.567Z,99.99
2016-12-08T08:26:55.289Z,99.99
2016-12-08T08:28:05.985Z,99.99
2016-12-08T08:29:16.698Z,99.99
2016-12-08T08:30:27.423Z,99.99
2016-12-08T08:31:38.202Z,99.99
2016-12-08T08:32:48.941Z,99.99
2016-12-08T08:33:59.657Z,99.99
2016-12-08T08:35:10.379Z,99.99
2016-12-08T08:36:21.129Z,99.99
2016-12-08T08:37:31.854Z,99.99
2016-12-08T08:38:42.573Z,99.99
2016-12-08T08:39:53.348Z,99.99
2016-12-08T08:41:04.096Z,99.99
2016-12-08T08:42:14.812Z,99.99
2016-12-08T08:43:25.554Z,99.99
2016-12-08T08:44:36.296Z,99.99
2016-12-08T08:45:47.021Z,99.99
2016-12-08T08:46:57.751Z,99.82
2016-12-08T08:48:08.484Z,99.54
2016-12-08T08:49:19.214Z,99.54
2016-12-08T08:50:29.963Z,98.87
2016-12-08T08:51:40.704Z,99.26
2016-12-08T08:52:51.447Z,97.92
2016-12-08T08:54:02.194Z,97.83
2016-12-08T08:55:12.941Z,97.36
2016-12-08T08:56:23.684Z,97.45
2016-12-08T08:57:34.439Z,97.36
2016-12-08T08:58:45.198Z,97.36
2016-12-08T08:59:55.930Z,96.78
2016-12-08T09:01:06.672Z,96.26
2016-12-08T09:02:17.736Z,95.93
2016-12-08T09:03:28.461Z,95.98
2016-12-08T09:04:39.207Z,95.79
2016-12-08T09:05:49.948Z,95.79
2016-12-08T09:07:00.685Z,95.31
2016-12-08T09:08:11.430Z,95.7
2016-12-08T09:09:22.166Z,95.6
2016-12-08T09:10:32.912Z,95.51
2016-12-08T09:11:43.661Z,95.03
2016-12-08T09:12:54.404Z,94.93
2016-12-08T09:14:05.150Z,94.84
2016-12-08T09:15:15.866Z,94.18
2016-12-08T09:16:26.612Z,94.18
2016-12-08T09:17:37.341Z,94.37
2016-12-08T09:18:48.080Z,95.03
2016-12-08T09:19:58.838Z,94.74
2016-12-08T09:21:09.601Z,94.37
2016-12-08T09:22:20.354Z,94.27
2016-12-08T09:23:31.121Z,93.7
2016-12-08T09:24:41.865Z,93.41
2016-12-08T09:25:52.611Z,92.99
2016-12-08T09:27:03.359Z,93.18
2016-12-08T09:28:14.080Z,92.71
2016-12-08T09:29:24.819Z,92.13
2016-12-08T09:30:35.515Z,92.23
2016-12-08T09:31:46.218Z,92.9
2016-12-08T09:32:56.964Z,92.8
2016-12-08T09:34:07.708Z,92.23
2016-12-08T09:35:18.431Z,92.13
2016-12-08T09:36:29.177Z,92.13
2016-12-08T09:37:39.916Z,91.94
2016-12-08T09:38:50.636Z,92.23
2016-12-08T09:40:01.366Z,92.04
2016-12-08T09:41:12.116Z,92.04
2016-12-08T09:42:22.856Z,91.47
2016-12-08T09:43:33.603Z,91.47
2016-12-08T09:44:44.347Z,91.28
2016-12-08T09:45:55.092Z,90.61
2016-12-08T09:47:05.863Z,90.52
2016-12-08T09:48:16.630Z,90.8
2016-12-08T09:49:27.380Z,90.56
2016-12-08T09:50:38.123Z,90.8
2016-12-08T09:51:48.881Z,90.8
2016-12-08T09:52:59.647Z,89.86
2016-12-08T09:54:10.411Z,89.8
2016-12-08T09:55:21.143Z,90.66
2016-12-08T09:56:31.910Z,90
2016-12-08T09:57:42.656Z,89.9
2016-12-08T09:58:53.382Z,89.9
2016-12-08T10:00:04.140Z,89.71
2016-12-08T10:01:14.868Z,89.61
2016-12-08T10:02:25.611Z,89.9
2016-12-08T10:03:36.361Z,89.42
2016-12-08T10:04:47.686Z,89.61
2016-12-08T10:05:58.452Z,89.52
2016-12-08T10:07:09.192Z,89.42
2016-12-08T10:08:19.937Z,89.23
2016-12-08T10:09:30.683Z,89.8
2016-12-08T10:10:41.408Z,89.52
2016-12-08T10:11:52.155Z,89.33
2016-12-08T10:13:03.176Z,89.52
2016-12-08T10:14:13.904Z,89.52
2016-12-08T10:15:24.639Z,89.14
2016-12-08T10:16:35.362Z,89.14
2016-12-08T10:17:46.369Z,88.95
2016-12-08T10:18:57.416Z,88.85
2016-12-08T10:20:08.155Z,89.23
2016-12-08T10:21:18.882Z,88.76
2016-12-08T10:22:29.926Z,88.95
2016-12-08T10:23:40.674Z,88.85
2016-12-08T10:24:51.381Z,88.28
2016-12-08T10:26:02.091Z,88.09
2016-12-08T10:27:12.853Z,88.47
2016-12-08T10:28:23.601Z,87.9
2016-12-08T10:29:34.333Z,88.04
2016-12-08T10:30:45.121Z,87.57
2016-12-08T10:31:55.857Z,88.23
2016-12-08T10:33:06.587Z,87.76
2016-12-08T10:34:17.325Z,87.38
2016-12-08T10:35:28.046Z,87.19
2016-12-08T10:36:38.796Z,86.71
2016-12-08T10:37:49.542Z,86.8
2016-12-08T10:39:00.285Z,86.14
2016-12-08T10:40:11.039Z,86.14
2016-12-08T10:41:21.780Z,86.14
2016-12-08T10:42:32.530Z,86.24
2016-12-08T10:43:43.279Z,86.18
2016-12-08T10:44:53.994Z,85.71
2016-12-08T10:46:05.065Z,85.61
2016-12-08T10:47:15.810Z,84.95
2016-12-08T10:48:26.557Z,85.52
2016-12-08T10:49:37.274Z,84.76
2016-12-08T10:50:48.003Z,84.47
2016-12-08T10:51:58.740Z,84.28
2016-12-08T10:53:09.461Z,84.52
2016-12-08T10:54:20.220Z,84.04
2016-12-08T10:55:30.978Z,83.47
2016-12-08T10:56:41.724Z,82.8
2016-12-08T10:57:52.450Z,82.42
2016-12-08T10:59:03.200Z,82.14
2016-12-08T11:00:13.923Z,81.56
2016-12-08T11:01:24.689Z,81.56
2016-12-08T11:02:35.430Z,82.23
2016-12-08T11:03:46.163Z,81.51
2016-12-08T11:04:56.909Z,81.03
2016-12-08T11:06:07.667Z,81.32
2016-12-08T11:07:18.389Z,80.46
2016-12-08T11:08:29.113Z,80.75
2016-12-08T11:09:39.842Z,79.99
2016-12-08T11:10:50.577Z,79.6
2016-12-08T11:12:01.623Z,79.51
2016-12-08T11:13:12.355Z,79.41
2016-12-08T11:14:23.097Z,78.94
2016-12-08T11:15:33.848Z,78.75
2016-12-08T11:16:44.606Z,78.31
2016-12-08T11:17:55.357Z,78.41
2016-12-08T11:19:06.109Z,78.03
2016-12-08T11:20:16.852Z,78.5
2016-12-08T11:21:27.602Z,78.31
2016-12-08T11:22:38.367Z,78.41
2016-12-08T11:23:49.115Z,78.41
2016-12-08T11:24:59.866Z,78.5
2016-12-08T11:26:10.599Z,78.31
2016-12-08T11:27:21.313Z,78.41
2016-12-08T11:28:32.073Z,78.5
2016-12-08T11:29:42.812Z,78.5
2016-12-08T11:30:53.546Z,78.12
2016-12-08T11:32:04.291Z,77.74
2016-12-08T11:33:15.026Z,77.55
2016-12-08T11:34:25.746Z,77.74
2016-12-08T11:35:36.476Z,77.74
2016-12-08T11:36:47.228Z,76.79
2016-12-08T11:37:57.971Z,77.17
2016-12-08T11:39:08.710Z,77.36
2016-12-08T11:40:19.437Z,77.64
2016-12-08T11:41:30.179Z,77.26
2016-12-08T11:42:40.918Z,77.17
2016-12-08T11:43:51.675Z,76.79
2016-12-08T11:45:02.464Z,77.17
2016-12-08T11:46:13.190Z,77.07
2016-12-08T11:47:23.965Z,76.98
2016-12-08T11:48:35.023Z,76.69
2016-12-08T11:49:45.751Z,76.88
2016-12-08T11:50:56.494Z,76.98
2016-12-08T11:52:07.243Z,76.79
2016-12-08T11:53:17.972Z,76.79
2016-12-08T11:54:29.014Z,76.59
2016-12-08T11:55:39.756Z,77.07
2016-12-08T11:56:50.481Z,77.26
2016-12-08T11:58:01.191Z,77.45
2016-12-08T11:59:11.919Z,77.45
2016-12-08T12:00:22.661Z,77.36
2016-12-08T12:01:33.415Z,77.26
2016-12-08T12:02:44.161Z,77.26
2016-12-08T12:03:54.899Z,77.64
2016-12-08T12:05:05.628Z,77.26
2016-12-08T12:06:16.376Z,77.45
2016-12-08T12:07:27.108Z,76.98
2016-12-08T12:08:37.830Z,77.55
2016-12-08T12:09:48.560Z,77.64
2016-12-08T12:10:59.325Z,77.83
2016-12-08T12:12:10.067Z,77.74
2016-12-08T12:13:20.793Z,77.45
2016-12-08T12:14:31.521Z,77.45
2016-12-08T12:15:42.262Z,77.74
2016-12-08T12:16:53.008Z,77.55
2016-12-08T12:18:03.751Z,77.13
2016-12-08T12:19:14.492Z,77.22
2016-12-08T12:20:25.215Z,77.36
2016-12-08T12:21:35.947Z,77.36
2016-12-08T12:22:46.690Z,77.61
2016-12-08T12:23:57.412Z,77.93
2016-12-08T12:25:08.122Z,77.83
2016-12-08T12:26:18.849Z,77.74
2016-12-08T12:27:29.593Z,77.93
2016-12-08T12:28:40.335Z,77.98
2016-12-08T12:29:51.060Z,78.03
2016-12-08T12:31:01.806Z,77.93
2016-12-08T12:32:12.523Z,78.12
2016-12-08T12:33:23.226Z,78.22
2016-12-08T12:34:33.990Z,77.93
2016-12-08T12:35:44.744Z,77.64
2016-12-08T12:36:55.465Z,77.45
2016-12-08T12:38:06.182Z,77.7
2016-12-08T12:39:16.923Z,77.93
2016-12-08T12:40:27.681Z,77.64
2016-12-08T12:41:38.452Z,77.83
2016-12-08T12:42:49.186Z,77.74
2016-12-08T12:43:59.908Z,77.74
2016-12-08T12:45:10.607Z,77.93
2016-12-08T12:46:21.382Z,77.83
2016-12-08T12:47:32.128Z,77.93
2016-12-08T12:48:43.179Z,77.36
2016-12-08T12:49:53.912Z,77.26
2016-12-08T12:51:04.638Z,77.26
2016-12-08T12:52:15.383Z,77.26
2016-12-08T12:53:26.108Z,77.36
2016-12-08T12:54:36.864Z,76.79
2016-12-08T12:55:47.617Z,77.26
2016-12-08T12:56:58.350Z,76.88
2016-12-08T12:58:09.091Z,76.79
2016-12-08T12:59:20.120Z,77.26
2016-12-08T13:00:30.851Z,77.26
2016-12-08T13:01:41.877Z,76.88
2016-12-08T13:02:52.655Z,76.98
2016-12-08T13:04:03.400Z,76.98
2016-12-08T13:05:14.125Z,76.69
2016-12-08T13:06:24.860Z,76.88
2016-12-08T13:07:35.631Z,76.79
2016-12-08T13:08:46.429Z,76.98
2016-12-08T13:09:57.180Z,76.69
2016-12-08T13:11:07.923Z,76.88
2016-12-08T13:12:18.661Z,77.26
2016-12-08T13:13:29.389Z,77.26
2016-12-08T13:14:40.132Z,77.55
2016-12-08T13:15:50.860Z,76.88
2016-12-08T13:17:01.602Z,76.88
2016-12-08T13:18:12.348Z,76.59
2016-12-08T13:19:23.087Z,76.79
2016-12-08T13:20:33.840Z,77.45
2016-12-08T13:21:44.554Z,77.17
2016-12-08T13:22:55.282Z,76.69
2016-12-08T13:24:06.020Z,77.36
2016-12-08T13:25:16.728Z,77.83
2016-12-08T13:26:27.462Z,77.26
2016-12-08T13:27:38.195Z,76.88
2016-12-08T13:28:48.941Z,76.69
2016-12-08T13:29:59.651Z,77.45
2016-12-08T13:31:10.408Z,77.36
2016-12-08T13:32:21.143Z,77.64
2016-12-08T13:33:31.874Z,77.36
2016-12-08T13:34:42.597Z,77.74
2016-12-08T13:35:53.342Z,77.64
2016-12-08T13:37:04.109Z,78.03
2016-12-08T13:38:14.856Z,77.98
2016-12-08T13:39:25.581Z,77.8
2016-12-08T13:40:36.352Z,77.89
2016-12-08T13:41:47.119Z,78.08
2016-12-08T13:42:57.868Z,78.46
2016-12-08T13:44:08.610Z,78.27
2016-12-08T13:45:19.336Z,78.27
2016-12-08T13:46:30.078Z,78.46
2016-12-08T13:47:40.798Z,78.17
2016-12-08T13:48:51.547Z,78.65
2016-12-08T13:50:02.273Z,78.46
2016-12-08T13:51:13.016Z,78.37
2016-12-08T13:52:24.062Z,78.27
2016-12-08T13:53:34.821Z,78.27
2016-12-08T13:54:45.575Z,78.27
2016-12-08T13:55:56.320Z,78.37
2016-12-08T13:57:07.073Z,78.46
2016-12-08T13:58:18.113Z,78.85
2016-12-08T13:59:28.863Z,78.17
2016-12-08T14:00:39.629Z,78.27
2016-12-08T14:01:50.350Z,78.27
2016-12-08T14:03:01.096Z,78.56
2016-12-08T14:04:11.864Z,78.65
2016-12-08T14:05:22.585Z,78.75
2016-12-08T14:06:33.327Z,78.94
2016-12-08T14:07:44.059Z,78.75
2016-12-08T14:08:54.808Z,78.65
2016-12-08T14:10:05.570Z,78.56
2016-12-08T14:11:16.343Z,78.75
2016-12-08T14:12:27.057Z,78.85
2016-12-08T14:13:37.788Z,78.75
2016-12-08T14:14:48.528Z,78.65
2016-12-08T14:15:59.281Z,78.75
2016-12-08T14:17:10.048Z,78.46
2016-12-08T14:18:20.769Z,78.56
2016-12-08T14:19:31.515Z,78.94
2016-12-08T14:20:42.262Z,78.56
2016-12-08T14:21:53.017Z,78.94
2016-12-08T14:23:03.750Z,79.03
2016-12-08T14:24:14.505Z,78.65
2016-12-08T14:25:25.242Z,78.75
2016-12-08T14:26:35.983Z,78.85
2016-12-08T14:27:46.691Z,78.85
2016-12-08T14:28:57.405Z,78.85
2016-12-08T14:30:08.122Z,78.94
2016-12-08T14:31:18.910Z,79.03
2016-12-08T14:32:29.668Z,78.94
2016-12-08T14:33:40.387Z,78.94
2016-12-08T14:34:51.118Z,79.13
2016-12-08T14:36:01.862Z,78.94
2016-12-08T14:37:12.584Z,78.94
2016-12-08T14:38:23.326Z,79.13
2016-12-08T14:39:34.065Z,78.94
2016-12-08T14:40:44.818Z,79.03
2016-12-08T14:41:55.567Z,79.51
2016-12-08T14:43:06.336Z,79.51
2016-12-08T14:44:17.086Z,79.6
2016-12-08T14:45:27.820Z,79.6
2016-12-08T14:46:38.553Z,79.41
2016-12-08T14:47:49.299Z,79.03
2016-12-08T14:49:00.041Z,79.7
2016-12-08T14:50:10.779Z,79.51
2016-12-08T14:51:21.500Z,79.6
2016-12-08T14:52:32.228Z,79.51
2016-12-08T14:53:42.975Z,79.6
2016-12-08T14:54:53.693Z,79.51
2016-12-08T14:56:04.739Z,79.6
2016-12-08T14:57:15.513Z,79.51
2016-12-08T14:58:26.252Z,79.32
2016-12-08T14:59:37.001Z,79.51
2016-12-08T15:00:47.748Z,79.7
2016-12-08T15:01:58.472Z,79.7
2016-12-08T15:03:09.216Z,79.8
2016-12-08T15:04:19.957Z,79.22
2016-12-08T15:05:30.685Z,79.6
2016-12-08T15:06:41.435Z,79.41
2016-12-08T15:07:52.181Z,79.41
2016-12-08T15:09:03.246Z,79.22
2016-12-08T15:10:14.000Z,79.22
2016-12-08T15:11:24.741Z,79.8
2016-12-08T15:12:35.517Z,79.89